sensor_id;sensor_type;location;lat;lon;timestamp;pressure;altitude;pressure_sealevel;temperature;humidity
38716;BME280;24833;49.324;8.694;2023-05-14T00:00:36;99809.03;;;14.45;54.76
38716;BME280;24833;49.324;8.694;2023-05-14T00:03:03;99817.28;;;14.43;54.78
38716;BME280;24833;49.324;8.694;2023-05-14T00:05:30;99816.69;;;14.41;54.82
38716;BME280;24833;49.324;8.694;2023-05-14T00:07:57;99817.16;;;14.38;54.85
38716;BME280;24833;49.324;8.694;2023-05-14T00:10:26;99817.34;;;14.37;54.88
38716;BME280;24833;49.324;8.694;2023-05-14T00:12:53;99811.16;;;14.36;54.80
38716;BME280;24833;49.324;8.694;2023-05-14T00:15:20;99823.75;;;14.36;54.84
38716;BME280;24833;49.324;8.694;2023-05-14T00:17:47;99814.06;;;14.35;54.94
38716;BME280;24833;49.324;8.694;2023-05-14T00:20:15;99814.28;;;14.33;54.67
38716;BME280;24833;49.324;8.694;2023-05-14T00:22:44;99815.34;;;14.32;54.75
38716;BME280;24833;49.324;8.694;2023-05-14T00:25:12;99809.13;;;14.32;55.27
38716;BME280;24833;49.324;8.694;2023-05-14T00:27:39;99806.66;;;14.30;54.99
38716;BME280;24833;49.324;8.694;2023-05-14T00:30:06;99805.81;;;14.30;55.62
38716;BME280;24833;49.324;8.694;2023-05-14T00:32:34;99801.28;;;14.30;55.11
38716;BME280;24833;49.324;8.694;2023-05-14T00:35:01;99808.75;;;14.28;55.08
38716;BME280;24833;49.324;8.694;2023-05-14T00:37:30;99800.69;;;14.28;55.27
38716;BME280;24833;49.324;8.694;2023-05-14T00:39:57;99807.91;;;14.28;55.00
38716;BME280;24833;49.324;8.694;2023-05-14T00:42:24;99803.38;;;14.28;55.22
38716;BME280;24833;49.324;8.694;2023-05-14T00:44:52;99804.41;;;14.27;55.52
38716;BME280;24833;49.324;8.694;2023-05-14T00:47:20;99806.06;;;14.28;55.32
38716;BME280;24833;49.324;8.694;2023-05-14T00:49:47;99809.78;;;14.27;55.03
38716;BME280;24833;49.324;8.694;2023-05-14T00:52:14;99808.16;;;14.26;55.39
38716;BME280;24833;49.324;8.694;2023-05-14T00:54:45;99810.84;;;14.26;55.34
38716;BME280;24833;49.324;8.694;2023-05-14T00:57:13;99809.19;;;14.25;55.23
38716;BME280;24833;49.324;8.694;2023-05-14T00:59:40;99809.38;;;14.24;55.42
38716;BME280;24833;49.324;8.694;2023-05-14T01:02:08;99803.41;;;14.22;55.42
38716;BME280;24833;49.324;8.694;2023-05-14T01:04:35;99802.59;;;14.21;55.37
38716;BME280;24833;49.324;8.694;2023-05-14T01:07:39;99798.50;;;14.18;54.31
38716;BME280;24833;49.324;8.694;2023-05-14T01:10:22;99799.72;;;14.16;54.89
38716;BME280;24833;49.324;8.694;2023-05-14T01:13:27;99798.53;;;14.12;54.33
38716;BME280;24833;49.324;8.694;2023-05-14T01:15:58;99801.66;;;14.09;56.04
38716;BME280;24833;49.324;8.694;2023-05-14T01:18:27;99797.78;;;14.05;55.76
38716;BME280;24833;49.324;8.694;2023-05-14T01:20:55;99796.31;;;14.02;56.43
38716;BME280;24833;49.324;8.694;2023-05-14T01:23:22;99788.94;;;13.98;55.94
38716;BME280;24833;49.324;8.694;2023-05-14T01:25:49;99785.03;;;13.94;55.54
38716;BME280;24833;49.324;8.694;2023-05-14T01:28:27;99785.91;;;13.87;55.28
38716;BME280;24833;49.324;8.694;2023-05-14T01:31:06;99776.63;;;13.83;55.78
38716;BME280;24833;49.324;8.694;2023-05-14T01:33:35;99781.84;;;13.78;56.51
38716;BME280;24833;49.324;8.694;2023-05-14T01:36:03;99784.34;;;13.73;56.40
38716;BME280;24833;49.324;8.694;2023-05-14T01:38:30;99775.28;;;13.68;56.76
38716;BME280;24833;49.324;8.694;2023-05-14T01:41:00;99776.97;;;13.62;56.20
38716;BME280;24833;49.324;8.694;2023-05-14T01:43:29;99772.47;;;13.56;56.56
38716;BME280;24833;49.324;8.694;2023-05-14T01:45:57;99772.50;;;13.49;56.82
38716;BME280;24833;49.324;8.694;2023-05-14T01:48:24;99764.28;;;13.44;56.49
38716;BME280;24833;49.324;8.694;2023-05-14T01:50:51;99763.28;;;13.39;57.38
38716;BME280;24833;49.324;8.694;2023-05-14T01:53:18;99768.44;;;13.33;56.18
38716;BME280;24833;49.324;8.694;2023-05-14T01:55:45;99763.94;;;13.27;57.40
38716;BME280;24833;49.324;8.694;2023-05-14T01:58:12;99769.94;;;13.23;56.61
38716;BME280;24833;49.324;8.694;2023-05-14T02:00:39;99763.53;;;13.17;56.47
38716;BME280;24833;49.324;8.694;2023-05-14T02:03:06;99761.50;;;13.13;56.90
38716;BME280;24833;49.324;8.694;2023-05-14T02:05:33;99768.31;;;13.08;57.61
38716;BME280;24833;49.324;8.694;2023-05-14T02:08:00;99762.75;;;13.03;56.87
38716;BME280;24833;49.324;8.694;2023-05-14T02:10:27;99771.44;;;12.99;56.46
38716;BME280;24833;49.324;8.694;2023-05-14T02:12:55;99760.31;;;12.95;56.86
38716;BME280;24833;49.324;8.694;2023-05-14T02:15:22;99764.47;;;12.91;57.69
38716;BME280;24833;49.324;8.694;2023-05-14T02:17:49;99761.59;;;12.86;57.47
38716;BME280;24833;49.324;8.694;2023-05-14T02:20:16;99771.91;;;12.82;57.31
38716;BME280;24833;49.324;8.694;2023-05-14T02:22:45;99768.59;;;12.80;56.80
38716;BME280;24833;49.324;8.694;2023-05-14T02:25:12;99769.03;;;12.77;57.02
38716;BME280;24833;49.324;8.694;2023-05-14T02:27:39;99765.13;;;12.73;56.65
38716;BME280;24833;49.324;8.694;2023-05-14T02:30:08;99773.56;;;12.70;56.94
38716;BME280;24833;49.324;8.694;2023-05-14T02:32:36;99770.28;;;12.68;57.03
38716;BME280;24833;49.324;8.694;2023-05-14T02:35:04;99766.19;;;12.66;58.28
38716;BME280;24833;49.324;8.694;2023-05-14T02:37:31;99766.56;;;12.63;57.83
38716;BME280;24833;49.324;8.694;2023-05-14T02:39:58;99772.38;;;12.60;57.20
38716;BME280;24833;49.324;8.694;2023-05-14T02:42:25;99771.94;;;12.56;57.25
38716;BME280;24833;49.324;8.694;2023-05-14T02:44:52;99767.03;;;12.53;57.36
38716;BME280;24833;49.324;8.694;2023-05-14T02:47:19;99768.28;;;12.50;57.66
38716;BME280;24833;49.324;8.694;2023-05-14T02:49:49;99762.28;;;12.48;57.56
38716;BME280;24833;49.324;8.694;2023-05-14T02:52:17;99764.56;;;12.45;57.72
38716;BME280;24833;49.324;8.694;2023-05-14T02:54:44;99762.28;;;12.42;57.78
38716;BME280;24833;49.324;8.694;2023-05-14T02:57:11;99760.03;;;12.39;57.22
38716;BME280;24833;49.324;8.694;2023-05-14T02:59:38;99762.06;;;12.37;57.78
38716;BME280;24833;49.324;8.694;2023-05-14T03:02:06;99757.75;;;12.36;57.29
38716;BME280;24833;49.324;8.694;2023-05-14T03:04:33;99766.22;;;12.33;57.55
38716;BME280;24833;49.324;8.694;2023-05-14T03:07:00;99767.25;;;12.32;57.70
38716;BME280;24833;49.324;8.694;2023-05-14T03:09:27;99759.41;;;12.30;57.08
38716;BME280;24833;49.324;8.694;2023-05-14T03:11:55;99764.97;;;12.28;57.57
38716;BME280;24833;49.324;8.694;2023-05-14T03:14:22;99764.97;;;12.28;57.53
38716;BME280;24833;49.324;8.694;2023-05-14T03:16:49;99765.78;;;12.29;57.52
38716;BME280;24833;49.324;8.694;2023-05-14T03:19:17;99770.31;;;12.28;57.14
38716;BME280;24833;49.324;8.694;2023-05-14T03:21:44;99767.66;;;12.28;57.25
38716;BME280;24833;49.324;8.694;2023-05-14T03:24:11;99760.44;;;12.29;57.44
38716;BME280;24833;49.324;8.694;2023-05-14T03:26:38;99773.66;;;12.31;57.16
38716;BME280;24833;49.324;8.694;2023-05-14T03:29:06;99771.16;;;12.29;57.16
38716;BME280;24833;49.324;8.694;2023-05-14T03:31:33;99773.66;;;12.31;57.15
38716;BME280;24833;49.324;8.694;2023-05-14T03:34:00;99777.16;;;12.31;57.92
38716;BME280;24833;49.324;8.694;2023-05-14T03:36:27;99769.09;;;12.31;57.65
38716;BME280;24833;49.324;8.694;2023-05-14T03:38:54;99769.94;;;12.32;57.78
38716;BME280;24833;49.324;8.694;2023-05-14T03:41:22;99767.25;;;12.32;57.36
38716;BME280;24833;49.324;8.694;2023-05-14T03:43:48;99766.44;;;12.31;57.78
38716;BME280;24833;49.324;8.694;2023-05-14T03:46:15;99768.28;;;12.31;57.83
38716;BME280;24833;49.324;8.694;2023-05-14T03:48:42;99762.94;;;12.31;57.79
38716;BME280;24833;49.324;8.694;2023-05-14T03:51:11;99762.28;;;12.28;58.13
38716;BME280;24833;49.324;8.694;2023-05-14T03:53:38;99767.66;;;12.28;58.16
38716;BME280;24833;49.324;8.694;2023-05-14T03:56:06;99759.63;;;12.28;58.26
38716;BME280;24833;49.324;8.694;2023-05-14T03:58:32;99764.16;;;12.28;58.24
38716;BME280;24833;49.324;8.694;2023-05-14T04:00:59;99759.63;;;12.28;58.36
38716;BME280;24833;49.324;8.694;2023-05-14T04:03:26;99762.28;;;12.28;57.85
38716;BME280;24833;49.324;8.694;2023-05-14T04:05:54;99762.94;;;12.31;58.30
38716;BME280;24833;49.324;8.694;2023-05-14T04:08:21;99760.88;;;12.33;57.90
38716;BME280;24833;49.324;8.694;2023-05-14T04:10:49;99757.16;;;12.34;58.16
38716;BME280;24833;49.324;8.694;2023-05-14T04:13:16;99767.44;;;12.37;58.14
38716;BME280;24833;49.324;8.694;2023-05-14T04:15:43;99762.72;;;12.39;58.34
38716;BME280;24833;49.324;8.694;2023-05-14T04:18:10;99767.03;;;12.40;58.91
38716;BME280;24833;49.324;8.694;2023-05-14T04:20:37;99759.81;;;12.40;58.57
38716;BME280;24833;49.324;8.694;2023-05-14T04:23:04;99764.97;;;12.42;58.63
38716;BME280;24833;49.324;8.694;2023-05-14T04:25:31;99757.56;;;12.44;58.62
38716;BME280;24833;49.324;8.694;2023-05-14T04:27:58;99759.22;;;12.45;58.55
38716;BME280;24833;49.324;8.694;2023-05-14T04:30:25;99762.72;;;12.45;58.64
38716;BME280;24833;49.324;8.694;2023-05-14T04:32:52;99768.66;;;12.47;58.58
38716;BME280;24833;49.324;8.694;2023-05-14T04:35:20;99766.00;;;12.47;59.14
38716;BME280;24833;49.324;8.694;2023-05-14T04:37:50;99755.50;;;12.46;56.78
38716;BME280;24833;49.324;8.694;2023-05-14T04:40:17;99765.59;;;12.44;59.53
38716;BME280;24833;49.324;8.694;2023-05-14T04:42:44;99770.31;;;12.42;59.52
38716;BME280;24833;49.324;8.694;2023-05-14T04:45:11;99761.25;;;12.43;59.30
38716;BME280;24833;49.324;8.694;2023-05-14T04:47:40;99761.47;;;12.41;59.12
38716;BME280;24833;49.324;8.694;2023-05-14T04:50:08;99760.63;;;12.41;59.67
38716;BME280;24833;49.324;8.694;2023-05-14T04:52:35;99757.97;;;12.41;59.25
38716;BME280;24833;49.324;8.694;2023-05-14T04:55:02;99762.28;;;12.42;59.15
38716;BME280;24833;49.324;8.694;2023-05-14T04:57:29;99771.97;;;12.43;59.32
38716;BME280;24833;49.324;8.694;2023-05-14T04:59:56;99776.09;;;12.45;60.02
38716;BME280;24833;49.324;8.694;2023-05-14T05:02:23;99772.16;;;12.48;59.50
38716;BME280;24833;49.324;8.694;2023-05-14T05:04:50;99774.44;;;12.51;59.87
38716;BME280;24833;49.324;8.694;2023-05-14T05:07:17;99767.84;;;12.53;60.45
38716;BME280;24833;49.324;8.694;2023-05-14T05:09:44;99770.09;;;12.57;59.83
38716;BME280;24833;49.324;8.694;2023-05-14T05:12:11;99767.84;;;12.60;60.43
38716;BME280;24833;49.324;8.694;2023-05-14T05:14:38;99771.75;;;12.64;60.63
38716;BME280;24833;49.324;8.694;2023-05-14T05:17:05;99762.47;;;12.67;59.87
38716;BME280;24833;49.324;8.694;2023-05-14T05:19:32;99759.97;;;12.72;60.64
38716;BME280;24833;49.324;8.694;2023-05-14T05:22:09;99779.75;;;12.77;59.94
38716;BME280;24833;49.324;8.694;2023-05-14T05:24:36;99767.78;;;12.80;60.17
38716;BME280;24833;49.324;8.694;2023-05-14T05:27:04;99771.50;;;12.86;60.30
38716;BME280;24833;49.324;8.694;2023-05-14T05:29:31;99766.50;;;12.89;59.83
38716;BME280;24833;49.324;8.694;2023-05-14T05:31:58;99764.84;;;12.95;59.95
38716;BME280;24833;49.324;8.694;2023-05-14T05:34:25;99758.66;;;13.01;60.12
38716;BME280;24833;49.324;8.694;2023-05-14T05:36:52;99767.50;;;13.08;60.62
38716;BME280;24833;49.324;8.694;2023-05-14T05:39:19;99770.97;;;13.15;60.96
38716;BME280;24833;49.324;8.694;2023-05-14T05:41:46;99768.06;;;13.23;60.77
38716;BME280;24833;49.324;8.694;2023-05-14T05:44:13;99773.63;;;13.28;60.92
38716;BME280;24833;49.324;8.694;2023-05-14T05:46:40;99771.75;;;13.35;60.39
38716;BME280;24833;49.324;8.694;2023-05-14T05:49:07;99768.81;;;13.44;61.17
38716;BME280;24833;49.324;8.694;2023-05-14T05:51:34;99769.63;;;13.51;60.78
38716;BME280;24833;49.324;8.694;2023-05-14T05:54:01;99769.13;;;13.60;60.73
38716;BME280;24833;49.324;8.694;2023-05-14T05:56:29;99765.97;;;13.70;60.49
38716;BME280;24833;49.324;8.694;2023-05-14T05:58:56;99768.19;;;13.80;61.07
38716;BME280;24833;49.324;8.694;2023-05-14T06:01:23;99768.53;;;13.90;61.09
38716;BME280;24833;49.324;8.694;2023-05-14T06:03:50;99771.34;;;14.02;60.57
38716;BME280;24833;49.324;8.694;2023-05-14T06:06:17;99767.72;;;14.14;60.49
38716;BME280;24833;49.324;8.694;2023-05-14T06:08:45;99771.59;;;14.25;61.28
38716;BME280;24833;49.324;8.694;2023-05-14T06:11:12;99765.47;;;14.36;60.78
38716;BME280;24833;49.324;8.694;2023-05-14T06:13:39;99777.19;;;14.49;60.98
38716;BME280;24833;49.324;8.694;2023-05-14T06:16:06;99775.88;;;14.58;61.57
38716;BME280;24833;49.324;8.694;2023-05-14T06:18:33;99784.00;;;14.69;60.94
38716;BME280;24833;49.324;8.694;2023-05-14T06:21:00;99772.75;;;14.79;60.98
38716;BME280;24833;49.324;8.694;2023-05-14T06:23:27;99772.47;;;14.87;60.92
38716;BME280;24833;49.324;8.694;2023-05-14T06:25:54;99771.09;;;14.96;60.87
38716;BME280;24833;49.324;8.694;2023-05-14T06:28:21;99771.41;;;15.07;61.61
38716;BME280;24833;49.324;8.694;2023-05-14T06:30:51;99770.63;;;15.18;60.87
38716;BME280;24833;49.324;8.694;2023-05-14T06:33:20;99766.84;;;15.25;60.86
38716;BME280;24833;49.324;8.694;2023-05-14T06:35:59;99769.22;;;15.34;60.81
38716;BME280;24833;49.324;8.694;2023-05-14T06:38:26;99777.44;;;15.39;60.97
38716;BME280;24833;49.324;8.694;2023-05-14T06:40:53;99761.66;;;15.42;60.87
38716;BME280;24833;49.324;8.694;2023-05-14T06:43:20;99763.91;;;15.45;60.78
38716;BME280;24833;49.324;8.694;2023-05-14T06:45:48;99759.91;;;15.48;60.28
38716;BME280;24833;49.324;8.694;2023-05-14T06:48:17;99762.16;;;15.51;60.75
38716;BME280;24833;49.324;8.694;2023-05-14T06:50:46;99762.75;;;15.53;60.17
38716;BME280;24833;49.324;8.694;2023-05-14T06:53:13;99759.84;;;15.54;60.07
38716;BME280;24833;49.324;8.694;2023-05-14T06:55:41;99764.16;;;15.56;60.46
38716;BME280;24833;49.324;8.694;2023-05-14T06:58:08;99769.53;;;15.56;60.61
38716;BME280;24833;49.324;8.694;2023-05-14T07:00:35;99751.75;;;15.54;60.16
38716;BME280;24833;49.324;8.694;2023-05-14T07:03:02;99758.19;;;15.53;60.97
38716;BME280;24833;49.324;8.694;2023-05-14T07:05:29;99761.47;;;15.56;60.99
38716;BME280;24833;49.324;8.694;2023-05-14T07:07:56;99755.03;;;15.57;60.30
38716;BME280;24833;49.324;8.694;2023-05-14T07:10:23;99754.97;;;15.63;60.12
38716;BME280;24833;49.324;8.694;2023-05-14T07:12:51;99758.38;;;15.70;60.13
38716;BME280;24833;49.324;8.694;2023-05-14T07:15:18;99756.22;;;15.79;60.13
38716;BME280;24833;49.324;8.694;2023-05-14T07:17:45;99756.94;;;15.86;60.54
38716;BME280;24833;49.324;8.694;2023-05-14T07:20:12;99755.19;;;15.92;60.66
38716;BME280;24833;49.324;8.694;2023-05-14T07:22:39;99752.97;;;16.00;60.83
38716;BME280;24833;49.324;8.694;2023-05-14T07:25:06;99755.09;;;16.10;60.64
38716;BME280;24833;49.324;8.694;2023-05-14T07:27:33;99746.44;;;16.20;60.55
38716;BME280;24833;49.324;8.694;2023-05-14T07:30:00;99744.78;;;16.30;60.33
38716;BME280;24833;49.324;8.694;2023-05-14T07:32:27;99738.59;;;16.42;60.55
38716;BME280;24833;49.324;8.694;2023-05-14T07:34:54;99737.19;;;16.51;60.72
38716;BME280;24833;49.324;8.694;2023-05-14T07:37:21;99736.13;;;16.63;60.73
38716;BME280;24833;49.324;8.694;2023-05-14T07:39:52;99737.53;;;16.78;60.62
38716;BME280;24833;49.324;8.694;2023-05-14T07:42:19;99729.44;;;16.89;60.36
38716;BME280;24833;49.324;8.694;2023-05-14T07:45:01;99725.19;;;17.05;60.65
38716;BME280;24833;49.324;8.694;2023-05-14T07:47:28;99725.47;;;17.21;60.93
38716;BME280;24833;49.324;8.694;2023-05-14T07:49:56;99722.50;;;17.34;61.17
38716;BME280;24833;49.324;8.694;2023-05-14T07:52:24;99714.94;;;17.48;61.19
38716;BME280;24833;49.324;8.694;2023-05-14T07:54:51;99721.31;;;17.58;60.83
38716;BME280;24833;49.324;8.694;2023-05-14T07:57:19;99714.59;;;17.73;61.15
38716;BME280;24833;49.324;8.694;2023-05-14T07:59:49;99712.72;;;17.90;61.26
38716;BME280;24833;49.324;8.694;2023-05-14T08:02:16;99710.09;;;18.12;61.91
38716;BME280;24833;49.324;8.694;2023-05-14T08:04:46;99715.00;;;18.32;61.76
38716;BME280;24833;49.324;8.694;2023-05-14T08:07:18;99715.78;;;18.49;61.14
38716;BME280;24833;49.324;8.694;2023-05-14T08:09:45;99713.81;;;18.61;61.07
38716;BME280;24833;49.324;8.694;2023-05-14T08:12:12;99708.06;;;18.74;60.98
38716;BME280;24833;49.324;8.694;2023-05-14T08:14:39;99715.22;;;18.86;61.12
38716;BME280;24833;49.324;8.694;2023-05-14T08:17:06;99711.28;;;18.93;60.66
38716;BME280;24833;49.324;8.694;2023-05-14T08:19:33;99710.50;;;18.98;60.12
38716;BME280;24833;49.324;8.694;2023-05-14T08:22:00;99709.75;;;19.02;60.40
38716;BME280;24833;49.324;8.694;2023-05-14T08:24:27;99706.59;;;19.11;60.57
38716;BME280;24833;49.324;8.694;2023-05-14T08:26:55;99707.56;;;19.21;60.76
38716;BME280;24833;49.324;8.694;2023-05-14T08:29:22;99706.53;;;19.27;60.47
38716;BME280;24833;49.324;8.694;2023-05-14T08:31:49;99708.25;;;19.39;60.38
38716;BME280;24833;49.324;8.694;2023-05-14T08:34:17;99698.03;;;19.46;60.70
38716;BME280;24833;49.324;8.694;2023-05-14T08:36:44;99705.97;;;19.52;60.86
38716;BME280;24833;49.324;8.694;2023-05-14T08:39:14;99705.19;;;19.57;60.49
38716;BME280;24833;49.324;8.694;2023-05-14T08:41:41;99710.16;;;19.60;60.12
38716;BME280;24833;49.324;8.694;2023-05-14T08:44:18;99706.66;;;19.65;60.18
38716;BME280;24833;49.324;8.694;2023-05-14T08:46:46;99709.13;;;19.66;60.11
38716;BME280;24833;49.324;8.694;2023-05-14T08:52:04;99700.31;;;19.54;58.81
38716;BME280;24833;49.324;8.694;2023-05-14T08:54:31;99707.84;;;19.52;58.50
38716;BME280;24833;49.324;8.694;2023-05-14T08:56:58;99699.19;;;19.50;58.89
38716;BME280;24833;49.324;8.694;2023-05-14T08:59:25;99690.50;;;19.48;58.87
38716;BME280;24833;49.324;8.694;2023-05-14T09:01:53;99693.22;;;19.48;58.90
38716;BME280;24833;49.324;8.694;2023-05-14T09:04:23;99691.59;;;19.52;59.95
38716;BME280;24833;49.324;8.694;2023-05-14T09:06:52;99693.81;;;19.55;59.73
38716;BME280;24833;49.324;8.694;2023-05-14T09:09:20;99698.16;;;19.56;58.83
38716;BME280;24833;49.324;8.694;2023-05-14T09:11:52;99695.00;;;19.64;59.83
38716;BME280;24833;49.324;8.694;2023-05-14T09:14:20;99693.97;;;19.70;59.36
38716;BME280;24833;49.324;8.694;2023-05-14T09:16:49;99693.22;;;19.75;59.21
38716;BME280;24833;49.324;8.694;2023-05-14T09:19:17;99689.22;;;19.82;59.79
38716;BME280;24833;49.324;8.694;2023-05-14T09:21:47;99694.97;;;19.91;59.74
38716;BME280;24833;49.324;8.694;2023-05-14T09:24:19;99691.50;;;19.96;59.67
38716;BME280;24833;49.324;8.694;2023-05-14T09:26:51;99692.63;;;20.00;59.58
38716;BME280;24833;49.324;8.694;2023-05-14T09:29:18;99694.84;;;20.08;59.81
38716;BME280;24833;49.324;8.694;2023-05-14T09:31:49;99694.34;;;20.16;59.67
38716;BME280;24833;49.324;8.694;2023-05-14T09:34:31;99689.53;;;20.23;60.09
38716;BME280;24833;49.324;8.694;2023-05-14T09:37:02;99689.03;;;20.31;59.66
38716;BME280;24833;49.324;8.694;2023-05-14T09:39:30;99692.09;;;20.40;59.88
38716;BME280;24833;49.324;8.694;2023-05-14T09:41:58;99690.25;;;20.51;59.99
38716;BME280;24833;49.324;8.694;2023-05-14T09:44:26;99688.97;;;20.63;60.36
38716;BME280;24833;49.324;8.694;2023-05-14T09:46:53;99678.19;;;20.79;60.27
38716;BME280;24833;49.324;8.694;2023-05-14T09:49:21;99669.56;;;20.87;59.51
38716;BME280;24833;49.324;8.694;2023-05-14T09:51:49;99670.38;;;20.98;59.32
38716;BME280;24833;49.324;8.694;2023-05-14T09:54:16;99669.88;;;21.11;59.65
38716;BME280;24833;49.324;8.694;2023-05-14T09:56:43;99671.00;;;21.20;59.78
38716;BME280;24833;49.324;8.694;2023-05-14T09:59:10;99671.53;;;21.17;57.83
38716;BME280;24833;49.324;8.694;2023-05-14T10:01:38;99671.81;;;21.15;57.89
38716;BME280;24833;49.324;8.694;2023-05-14T10:04:09;99680.78;;;21.16;58.48
38716;BME280;24833;49.324;8.694;2023-05-14T10:06:38;99678.06;;;21.16;57.52
38716;BME280;24833;49.324;8.694;2023-05-14T10:09:11;99676.44;;;21.15;58.40
38716;BME280;24833;49.324;8.694;2023-05-14T10:11:42;99672.09;;;21.14;58.58
38716;BME280;24833;49.324;8.694;2023-05-14T10:14:39;99671.81;;;21.15;58.88
38716;BME280;24833;49.324;8.694;2023-05-14T10:17:08;99672.34;;;21.17;58.33
38716;BME280;24833;49.324;8.694;2023-05-14T10:19:51;99672.06;;;21.19;58.44
38716;BME280;24833;49.324;8.694;2023-05-14T10:22:22;99675.34;;;21.21;58.19
38716;BME280;24833;49.324;8.694;2023-05-14T10:24:51;99684.84;;;21.23;58.52
38716;BME280;24833;49.324;8.694;2023-05-14T10:27:22;99666.38;;;21.26;57.70
38716;BME280;24833;49.324;8.694;2023-05-14T10:29:54;99673.78;;;21.30;58.23
38716;BME280;24833;49.324;8.694;2023-05-14T10:32:23;99675.97;;;21.33;58.20
38716;BME280;24833;49.324;8.694;2023-05-14T10:34:52;99682.47;;;21.37;58.45
38716;BME280;24833;49.324;8.694;2023-05-14T10:37:25;99677.06;;;21.42;58.44
38716;BME280;24833;49.324;8.694;2023-05-14T10:40:01;99674.59;;;21.46;58.60
38716;BME280;24833;49.324;8.694;2023-05-14T10:42:36;99672.44;;;21.53;58.73
38716;BME280;24833;49.324;8.694;2023-05-14T10:45:14;99664.03;;;21.55;57.44
38716;BME280;24833;49.324;8.694;2023-05-14T10:47:44;99668.91;;;21.42;57.09
38716;BME280;24833;49.324;8.694;2023-05-14T10:50:14;99671.63;;;21.42;57.65
38716;BME280;24833;49.324;8.694;2023-05-14T10:52:42;99665.38;;;21.42;57.43
38716;BME280;24833;49.324;8.694;2023-05-14T10:55:15;99674.63;;;21.41;57.73
38716;BME280;24833;49.324;8.694;2023-05-14T10:57:45;99665.91;;;21.39;57.35
38716;BME280;24833;49.324;8.694;2023-05-14T11:00:13;99659.94;;;21.37;57.45
38716;BME280;24833;49.324;8.694;2023-05-14T11:02:42;99665.34;;;21.37;57.62
38716;BME280;24833;49.324;8.694;2023-05-14T11:05:15;99659.66;;;21.38;57.64
38716;BME280;24833;49.324;8.694;2023-05-14T11:07:47;99659.94;;;21.42;57.67
38716;BME280;24833;49.324;8.694;2023-05-14T11:10:16;99656.94;;;21.43;57.66
38716;BME280;24833;49.324;8.694;2023-05-14T11:12:46;99650.44;;;21.49;57.65
38716;BME280;24833;49.324;8.694;2023-05-14T11:15:16;99652.88;;;21.51;57.40
38716;BME280;24833;49.324;8.694;2023-05-14T11:17:44;99645.53;;;21.52;58.27
38716;BME280;24833;49.324;8.694;2023-05-14T11:20:12;99645.53;;;21.57;57.72
38716;BME280;24833;49.324;8.694;2023-05-14T11:22:41;99645.56;;;21.62;57.89
38716;BME280;24833;49.324;8.694;2023-05-14T11:25:09;99651.53;;;21.69;57.79
38716;BME280;24833;49.324;8.694;2023-05-14T11:27:38;99646.91;;;21.74;57.71
38716;BME280;24833;49.324;8.694;2023-05-14T11:30:12;99642.31;;;21.80;57.89
38716;BME280;24833;49.324;8.694;2023-05-14T11:32:45;99647.19;;;21.83;57.36
38716;BME280;24833;49.324;8.694;2023-05-14T11:35:13;99646.38;;;21.88;57.50
38716;BME280;24833;49.324;8.694;2023-05-14T11:37:42;99650.72;;;21.94;57.42
38716;BME280;24833;49.324;8.694;2023-05-14T11:40:15;99645.53;;;21.97;57.39
38716;BME280;24833;49.324;8.694;2023-05-14T11:42:42;99643.34;;;22.04;57.58
38716;BME280;24833;49.324;8.694;2023-05-14T11:45:11;99642.00;;;22.12;57.65
38716;BME280;24833;49.324;8.694;2023-05-14T11:47:40;99640.09;;;22.18;57.30
38716;BME280;24833;49.324;8.694;2023-05-14T11:50:11;99643.91;;;22.22;57.24
38716;BME280;24833;49.324;8.694;2023-05-14T11:52:40;99633.03;;;22.22;57.03
38716;BME280;24833;49.324;8.694;2023-05-14T11:55:11;99635.75;;;22.22;56.70
38716;BME280;24833;49.324;8.694;2023-05-14T11:57:39;99630.28;;;22.22;56.64
38716;BME280;24833;49.324;8.694;2023-05-14T12:00:11;99630.84;;;22.19;56.14
38716;BME280;24833;49.324;8.694;2023-05-14T12:02:49;99628.16;;;22.14;56.26
38716;BME280;24833;49.324;8.694;2023-05-14T12:05:20;99634.66;;;22.08;56.15
38716;BME280;24833;49.324;8.694;2023-05-14T12:07:51;99628.13;;;22.03;55.98
38716;BME280;24833;49.324;8.694;2023-05-14T12:10:21;99623.50;;;21.99;56.15
38716;BME280;24833;49.324;8.694;2023-05-14T12:12:49;99626.78;;;21.96;55.98
38716;BME280;24833;49.324;8.694;2023-05-14T12:15:19;99615.09;;;21.95;56.34
38716;BME280;24833;49.324;8.694;2023-05-14T12:17:56;99616.72;;;21.96;56.35
38716;BME280;24833;49.324;8.694;2023-05-14T12:20:28;99606.91;;;22.00;56.35
38716;BME280;24833;49.324;8.694;2023-05-14T12:22:55;99608.50;;;22.07;56.56
38716;BME280;24833;49.324;8.694;2023-05-14T12:25:24;99600.38;;;22.12;56.33
38716;BME280;24833;49.324;8.694;2023-05-14T12:27:51;99606.38;;;22.14;56.69
38716;BME280;24833;49.324;8.694;2023-05-14T12:30:18;99597.66;;;22.22;56.46
38716;BME280;24833;49.324;8.694;2023-05-14T12:32:47;99599.78;;;22.30;56.70
38716;BME280;24833;49.324;8.694;2023-05-14T12:35:19;99592.94;;;22.43;57.21
38716;BME280;24833;49.324;8.694;2023-05-14T12:37:47;99600.81;;;22.54;57.04
38716;BME280;24833;49.324;8.694;2023-05-14T12:40:14;99594.47;;;22.69;57.16
38716;BME280;24833;49.324;8.694;2023-05-14T12:42:41;99589.75;;;22.85;57.34
38716;BME280;24833;49.324;8.694;2023-05-14T12:45:08;99584.66;;;23.18;58.14
38716;BME280;24833;49.324;8.694;2023-05-14T12:47:35;99591.94;;;23.67;57.78
38716;BME280;24833;49.324;8.694;2023-05-14T12:50:04;99592.28;;;24.42;60.61
38716;BME280;24833;49.324;8.694;2023-05-14T12:52:32;99582.25;;;25.37;61.40
38716;BME280;24833;49.324;8.694;2023-05-14T12:55:06;99585.66;;;26.21;59.86
38716;BME280;24833;49.324;8.694;2023-05-14T12:57:34;99584.97;;;26.71;56.66
38716;BME280;24833;49.324;8.694;2023-05-14T13:00:03;99570.44;;;26.84;54.22
38716;BME280;24833;49.324;8.694;2023-05-14T13:02:33;99569.09;;;26.81;52.56
38716;BME280;24833;49.324;8.694;2023-05-14T13:05:12;99567.19;;;26.68;50.84
38716;BME280;24833;49.324;8.694;2023-05-14T13:07:39;99568.06;;;26.55;51.85
38716;BME280;24833;49.324;8.694;2023-05-14T13:10:07;99566.22;;;26.37;50.71